sensor_id;sensor_type;location;lat;lon;timestamp;P1;durP1;ratioP1;P2;durP2;ratioP2
1328;SDS011;658;48.820;9.354;2022-12-29T00:01:51;5.63;;;4.93;;
1328;SDS011;658;48.820;9.354;2022-12-29T00:05:55;7.23;;;4.90;;
1328;SDS011;658;48.820;9.354;2022-12-29T00:09:57;6.70;;;5.03;;
1328;SDS011;658;48.820;9.354;2022-12-29T00:13:57;5.70;;;4.30;;
1328;SDS011;658;48.820;9.354;2022-12-29T00:18:17;7.00;;;4.77;;
1328;SDS011;658;48.820;9.354;2022-12-29T00:22:18;5.40;;;4.27;;
1328;SDS011;658;48.820;9.354;2022-12-29T00:26:37;5.23;;;4.10;;
1328;SDS011;658;48.820;9.354;2022-12-29T00:30:59;4.80;;;4.10;;
1328;SDS011;658;48.820;9.354;2022-12-29T00:35:22;5.30;;;4.80;;
1328;SDS011;658;48.820;9.354;2022-12-29T00:39:28;5.90;;;4.40;;
1328;SDS011;658;48.820;9.354;2022-12-29T00:43:47;6.47;;;4.57;;
1328;SDS011;658;48.820;9.354;2022-12-29T00:48:06;7.77;;;3.83;;
1328;SDS011;658;48.820;9.354;2022-12-29T00:52:08;3.90;;;3.50;;
1328;SDS011;658;48.820;9.354;2022-12-29T00:56:10;3.27;;;2.93;;
1328;SDS011;658;48.820;9.354;2022-12-29T01:00:11;4.60;;;4.13;;
1328;SDS011;658;48.820;9.354;2022-12-29T01:04:12;4.93;;;3.90;;
1328;SDS011;658;48.820;9.354;2022-12-29T01:08:13;7.00;;;4.03;;
1328;SDS011;658;48.820;9.354;2022-12-29T01:12:14;5.20;;;3.70;;
1328;SDS011;658;48.820;9.354;2022-12-29T01:16:17;5.53;;;4.23;;
1328;SDS011;658;48.820;9.354;2022-12-29T01:20:18;4.50;;;3.70;;
1328;SDS011;658;48.820;9.354;2022-12-29T01:24:19;3.97;;;3.27;;
1328;SDS011;658;48.820;9.354;2022-12-29T01:28:20;3.40;;;3.10;;
1328;SDS011;658;48.820;9.354;2022-12-29T01:32:21;3.40;;;3.10;;
1328;SDS011;658;48.820;9.354;2022-12-29T01:36:23;5.00;;;2.87;;
1328;SDS011;658;48.820;9.354;2022-12-29T01:40:24;3.60;;;3.27;;
1328;SDS011;658;48.820;9.354;2022-12-29T01:49:09;3.93;;;2.90;;
1328;SDS011;658;48.820;9.354;2022-12-29T01:53:17;3.10;;;2.53;;
1328;SDS011;658;48.820;9.354;2022-12-29T01:57:22;3.10;;;2.83;;
1328;SDS011;658;48.820;9.354;2022-12-29T02:01:29;3.67;;;3.37;;
1328;SDS011;658;48.820;9.354;2022-12-29T02:05:38;4.23;;;3.30;;
1328;SDS011;658;48.820;9.354;2022-12-29T02:09:50;3.10;;;2.80;;
1328;SDS011;658;48.820;9.354;2022-12-29T02:13:52;3.70;;;3.40;;
1328;SDS011;658;48.820;9.354;2022-12-29T02:17:59;3.40;;;2.57;;
1328;SDS011;658;48.820;9.354;2022-12-29T02:22:17;2.80;;;2.43;;
1328;SDS011;658;48.820;9.354;2022-12-29T02:26:29;2.97;;;2.53;;
1328;SDS011;658;48.820;9.354;2022-12-29T02:43:48;3.37;;;2.63;;
1328;SDS011;658;48.820;9.354;2022-12-29T02:52:01;2.43;;;2.23;;
1328;SDS011;658;48.820;9.354;2022-12-29T02:56:10;2.53;;;2.20;;
1328;SDS011;658;48.820;9.354;2022-12-29T03:04:34;2.23;;;2.03;;
1328;SDS011;658;48.820;9.354;2022-12-29T03:08:54;2.50;;;2.30;;
1328;SDS011;658;48.820;9.354;2022-12-29T03:18:02;2.43;;;2.00;;
1328;SDS011;658;48.820;9.354;2022-12-29T03:22:13;2.30;;;2.10;;
1328;SDS011;658;48.820;9.354;2022-12-29T03:26:30;2.27;;;2.10;;
1328;SDS011;658;48.820;9.354;2022-12-29T03:30:31;2.33;;;1.93;;
1328;SDS011;658;48.820;9.354;2022-12-29T03:34:35;3.70;;;2.30;;
1328;SDS011;658;48.820;9.354;2022-12-29T03:38:41;1.97;;;1.87;;
1328;SDS011;658;48.820;9.354;2022-12-29T03:42:49;2.17;;;1.97;;
1328;SDS011;658;48.820;9.354;2022-12-29T03:46:52;2.53;;;1.90;;
1328;SDS011;658;48.820;9.354;2022-12-29T03:50:52;2.70;;;2.00;;
1328;SDS011;658;48.820;9.354;2022-12-29T03:54:53;2.40;;;2.20;;
1328;SDS011;658;48.820;9.354;2022-12-29T03:58:54;1.83;;;1.73;;
1328;SDS011;658;48.820;9.354;2022-12-29T04:02:54;2.17;;;2.00;;
1328;SDS011;658;48.820;9.354;2022-12-29T04:06:55;1.97;;;1.60;;
1328;SDS011;658;48.820;9.354;2022-12-29T04:10:55;2.50;;;2.07;;
1328;SDS011;658;48.820;9.354;2022-12-29T04:14:56;1.93;;;1.83;;
1328;SDS011;658;48.820;9.354;2022-12-29T04:18:57;1.70;;;1.60;;
1328;SDS011;658;48.820;9.354;2022-12-29T04:23:01;1.63;;;1.53;;
1328;SDS011;658;48.820;9.354;2022-12-29T04:27:06;1.70;;;1.40;;
1328;SDS011;658;48.820;9.354;2022-12-29T04:31:06;1.70;;;1.60;;
1328;SDS011;658;48.820;9.354;2022-12-29T04:35:07;1.70;;;1.47;;
1328;SDS011;658;48.820;9.354;2022-12-29T04:39:08;1.97;;;1.77;;
1328;SDS011;658;48.820;9.354;2022-12-29T04:43:09;1.73;;;1.63;;
1328;SDS011;658;48.820;9.354;2022-12-29T04:47:10;2.13;;;1.50;;
1328;SDS011;658;48.820;9.354;2022-12-29T04:51:10;1.57;;;1.33;;
1328;SDS011;658;48.820;9.354;2022-12-29T04:55:11;1.70;;;1.60;;
1328;SDS011;658;48.820;9.354;2022-12-29T04:59:12;2.57;;;1.67;;
1328;SDS011;658;48.820;9.354;2022-12-29T05:03:12;1.50;;;1.40;;
1328;SDS011;658;48.820;9.354;2022-12-29T05:07:13;1.37;;;1.27;;
1328;SDS011;658;48.820;9.354;2022-12-29T05:11:13;1.70;;;1.60;;
1328;SDS011;658;48.820;9.354;2022-12-29T05:15:14;1.90;;;1.30;;
1328;SDS011;658;48.820;9.354;2022-12-29T05:19:15;1.40;;;1.30;;
1328;SDS011;658;48.820;9.354;2022-12-29T05:23:16;1.30;;;1.20;;
1328;SDS011;658;48.820;9.354;2022-12-29T05:27:17;1.20;;;1.10;;
1328;SDS011;658;48.820;9.354;2022-12-29T05:31:17;1.23;;;1.13;;
1328;SDS011;658;48.820;9.354;2022-12-29T05:35:18;1.83;;;1.40;;
1328;SDS011;658;48.820;9.354;2022-12-29T05:39:18;0.90;;;0.90;;
1328;SDS011;658;48.820;9.354;2022-12-29T05:43:19;1.17;;;1.07;;
1328;SDS011;658;48.820;9.354;2022-12-29T05:47:20;1.30;;;1.20;;
1328;SDS011;658;48.820;9.354;2022-12-29T05:51:20;1.30;;;1.20;;
1328;SDS011;658;48.820;9.354;2022-12-29T05:55:21;1.30;;;1.20;;
1328;SDS011;658;48.820;9.354;2022-12-29T05:59:21;3.30;;;1.40;;
1328;SDS011;658;48.820;9.354;2022-12-29T06:03:22;1.27;;;1.17;;
1328;SDS011;658;48.820;9.354;2022-12-29T06:07:23;1.27;;;1.17;;
1328;SDS011;658;48.820;9.354;2022-12-29T06:11:23;1.20;;;1.10;;
1328;SDS011;658;48.820;9.354;2022-12-29T06:15:24;1.40;;;1.30;;
1328;SDS011;658;48.820;9.354;2022-12-29T06:19:24;1.07;;;1.03;;
1328;SDS011;658;48.820;9.354;2022-12-29T06:23:25;1.23;;;1.13;;
1328;SDS011;658;48.820;9.354;2022-12-29T06:27:26;1.20;;;1.10;;
1328;SDS011;658;48.820;9.354;2022-12-29T06:31:26;1.20;;;1.10;;
1328;SDS011;658;48.820;9.354;2022-12-29T06:35:27;1.57;;;1.10;;
1328;SDS011;658;48.820;9.354;2022-12-29T06:39:27;0.93;;;0.93;;
1328;SDS011;658;48.820;9.354;2022-12-29T06:43:28;1.40;;;1.30;;
1328;SDS011;658;48.820;9.354;2022-12-29T06:47:30;1.30;;;1.20;;
1328;SDS011;658;48.820;9.354;2022-12-29T06:51:31;0.87;;;0.87;;
1328;SDS011;658;48.820;9.354;2022-12-29T06:55:31;0.90;;;0.90;;
1328;SDS011;658;48.820;9.354;2022-12-29T06:59:32;1.03;;;0.90;;
1328;SDS011;658;48.820;9.354;2022-12-29T07:03:32;1.50;;;1.13;;
1328;SDS011;658;48.820;9.354;2022-12-29T07:07:33;1.00;;;0.90;;
1328;SDS011;658;48.820;9.354;2022-12-29T07:11:34;1.93;;;1.43;;
1328;SDS011;658;48.820;9.354;2022-12-29T07:15:36;1.07;;;0.97;;
1328;SDS011;658;48.820;9.354;2022-12-29T07:19:37;1.23;;;1.10;;
1328;SDS011;658;48.820;9.354;2022-12-29T07:23:37;0.90;;;0.90;;
1328;SDS011;658;48.820;9.354;2022-12-29T07:27:38;1.20;;;1.10;;
1328;SDS011;658;48.820;9.354;2022-12-29T07:31:38;1.20;;;1.10;;
1328;SDS011;658;48.820;9.354;2022-12-29T07:35:39;0.90;;;0.80;;
1328;SDS011;658;48.820;9.354;2022-12-29T07:39:40;1.13;;;1.03;;
1328;SDS011;658;48.820;9.354;2022-12-29T07:43:40;1.10;;;1.00;;
1328;SDS011;658;48.820;9.354;2022-12-29T07:47:41;1.07;;;0.97;;
1328;SDS011;658;48.820;9.354;2022-12-29T07:51:41;1.20;;;1.10;;
1328;SDS011;658;48.820;9.354;2022-12-29T07:55:42;0.90;;;0.90;;
1328;SDS011;658;48.820;9.354;2022-12-29T07:59:42;0.80;;;0.80;;
1328;SDS011;658;48.820;9.354;2022-12-29T08:03:43;0.93;;;0.83;;
1328;SDS011;658;48.820;9.354;2022-12-29T08:07:44;1.10;;;1.00;;
1328;SDS011;658;48.820;9.354;2022-12-29T08:11:45;0.90;;;0.90;;
1328;SDS011;658;48.820;9.354;2022-12-29T08:15:46;1.07;;;0.97;;
1328;SDS011;658;48.820;9.354;2022-12-29T08:19:47;1.23;;;0.90;;
1328;SDS011;658;48.820;9.354;2022-12-29T08:23:47;0.80;;;0.80;;
1328;SDS011;658;48.820;9.354;2022-12-29T08:27:48;1.33;;;1.20;;
1328;SDS011;658;48.820;9.354;2022-12-29T08:31:48;1.10;;;1.00;;
1328;SDS011;658;48.820;9.354;2022-12-29T08:35:49;1.83;;;0.90;;
1328;SDS011;658;48.820;9.354;2022-12-29T08:39:50;1.10;;;1.00;;
1328;SDS011;658;48.820;9.354;2022-12-29T08:43:50;0.90;;;0.80;;
1328;SDS011;658;48.820;9.354;2022-12-29T08:47:51;1.20;;;1.10;;
1328;SDS011;658;48.820;9.354;2022-12-29T08:51:51;1.33;;;0.90;;
1328;SDS011;658;48.820;9.354;2022-12-29T08:55:58;1.17;;;1.07;;
1328;SDS011;658;48.820;9.354;2022-12-29T08:59:59;2.60;;;1.07;;
1328;SDS011;658;48.820;9.354;2022-12-29T09:04:00;0.90;;;0.87;;
1328;SDS011;658;48.820;9.354;2022-12-29T09:08:01;0.80;;;0.80;;
1328;SDS011;658;48.820;9.354;2022-12-29T09:12:01;0.73;;;0.73;;
1328;SDS011;658;48.820;9.354;2022-12-29T09:16:02;1.20;;;1.10;;
1328;SDS011;658;48.820;9.354;2022-12-29T09:20:03;1.37;;;1.27;;
1328;SDS011;658;48.820;9.354;2022-12-29T09:24:04;1.10;;;1.10;;
1328;SDS011;658;48.820;9.354;2022-12-29T09:28:05;0.97;;;0.90;;
1328;SDS011;658;48.820;9.354;2022-12-29T09:32:07;1.07;;;0.97;;
1328;SDS011;658;48.820;9.354;2022-12-29T09:36:08;1.27;;;0.93;;
1328;SDS011;658;48.820;9.354;2022-12-29T09:54:04;1.90;;;1.20;;
1328;SDS011;658;48.820;9.354;2022-12-29T09:58:40;1.30;;;0.93;;
1328;SDS011;658;48.820;9.354;2022-12-29T10:02:54;2.33;;;1.00;;
1328;SDS011;658;48.820;9.354;2022-12-29T10:07:01;1.67;;;1.00;;
1328;SDS011;658;48.820;9.354;2022-12-29T10:11:31;2.93;;;1.40;;
1328;SDS011;658;48.820;9.354;2022-12-29T10:24:24;4.30;;;1.40;;
1328;SDS011;658;48.820;9.354;2022-12-29T10:32:44;1.87;;;1.00;;
1328;SDS011;658;48.820;9.354;2022-12-29T10:37:03;1.07;;;0.70;;
1328;SDS011;658;48.820;9.354;2022-12-29T10:41:21;1.30;;;1.00;;
1328;SDS011;658;48.820;9.354;2022-12-29T10:45:33;1.63;;;1.30;;
1328;SDS011;658;48.820;9.354;2022-12-29T10:49:35;1.10;;;1.00;;
1328;SDS011;658;48.820;9.354;2022-12-29T10:53:45;2.13;;;1.23;;
1328;SDS011;658;48.820;9.354;2022-12-29T10:57:49;1.90;;;0.90;;
1328;SDS011;658;48.820;9.354;2022-12-29T11:01:58;1.50;;;0.97;;
1328;SDS011;658;48.820;9.354;2022-12-29T11:14:35;1.43;;;1.03;;
1328;SDS011;658;48.820;9.354;2022-12-29T11:18:36;1.60;;;1.03;;
1328;SDS011;658;48.820;9.354;2022-12-29T11:22:38;1.60;;;1.20;;
1328;SDS011;658;48.820;9.354;2022-12-29T11:26:44;1.67;;;1.10;;
1328;SDS011;658;48.820;9.354;2022-12-29T11:30:44;4.10;;;1.00;;
1328;SDS011;658;48.820;9.354;2022-12-29T11:35:00;1.70;;;1.20;;
1328;SDS011;658;48.820;9.354;2022-12-29T11:39:01;0.90;;;0.90;;
1328;SDS011;658;48.820;9.354;2022-12-29T11:43:03;1.80;;;1.00;;
1328;SDS011;658;48.820;9.354;2022-12-29T11:47:04;1.10;;;1.00;;
1328;SDS011;658;48.820;9.354;2022-12-29T11:51:07;1.60;;;1.10;;
1328;SDS011;658;48.820;9.354;2022-12-29T11:55:16;1.20;;;1.10;;
1328;SDS011;658;48.820;9.354;2022-12-29T12:03:27;1.40;;;1.00;;
1328;SDS011;658;48.820;9.354;2022-12-29T12:07:39;1.30;;;1.17;;
1328;SDS011;658;48.820;9.354;2022-12-29T12:11:42;3.10;;;1.17;;
1328;SDS011;658;48.820;9.354;2022-12-29T12:15:52;1.03;;;0.90;;
1328;SDS011;658;48.820;9.354;2022-12-29T12:20:04;1.13;;;1.03;;
1328;SDS011;658;48.820;9.354;2022-12-29T12:24:34;1.33;;;1.20;;
1328;SDS011;658;48.820;9.354;2022-12-29T12:28:51;1.10;;;1.03;;
1328;SDS011;658;48.820;9.354;2022-12-29T12:33:33;1.97;;;1.40;;
1328;SDS011;658;48.820;9.354;2022-12-29T12:37:48;1.40;;;0.90;;
1328;SDS011;658;48.820;9.354;2022-12-29T12:42:24;1.43;;;1.20;;
1328;SDS011;658;48.820;9.354;2022-12-29T12:50:59;4.30;;;1.47;;
1328;SDS011;658;48.820;9.354;2022-12-29T12:55:30;1.40;;;1.10;;
1328;SDS011;658;48.820;9.354;2022-12-29T12:59:30;2.30;;;1.10;;
1328;SDS011;658;48.820;9.354;2022-12-29T13:03:59;3.07;;;1.30;;
1328;SDS011;658;48.820;9.354;2022-12-29T13:12:39;2.57;;;1.00;;
1328;SDS011;658;48.820;9.354;2022-12-29T13:21:50;1.10;;;0.90;;
1328;SDS011;658;48.820;9.354;2022-12-29T13:26:05;1.10;;;0.80;;
1328;SDS011;658;48.820;9.354;2022-12-29T13:30:10;1.17;;;0.97;;
1328;SDS011;658;48.820;9.354;2022-12-29T13:34:28;1.23;;;1.07;;
1328;SDS011;658;48.820;9.354;2022-12-29T13:38:47;1.47;;;1.10;;
1328;SDS011;658;48.820;9.354;2022-12-29T13:42:54;0.93;;;0.93;;
1328;SDS011;658;48.820;9.354;2022-12-29T13:46:56;1.07;;;0.90;;
1328;SDS011;658;48.820;9.354;2022-12-29T13:51:02;1.17;;;1.00;;
1328;SDS011;658;48.820;9.354;2022-12-29T13:55:16;1.03;;;0.93;;
1328;SDS011;658;48.820;9.354;2022-12-29T14:03:51;0.93;;;0.93;;
1328;SDS011;658;48.820;9.354;2022-12-29T14:07:58;2.17;;;1.20;;
1328;SDS011;658;48.820;9.354;2022-12-29T14:12:01;2.40;;;1.20;;
1328;SDS011;658;48.820;9.354;2022-12-29T14:16:32;1.07;;;0.97;;
1328;SDS011;658;48.820;9.354;2022-12-29T14:20:34;1.13;;;0.90;;
1328;SDS011;658;48.820;9.354;2022-12-29T14:28:40;4.10;;;1.10;;
1328;SDS011;658;48.820;9.354;2022-12-29T14:32:47;0.70;;;0.70;;
1328;SDS011;658;48.820;9.354;2022-12-29T14:37:02;1.00;;;0.80;;
1328;SDS011;658;48.820;9.354;2022-12-29T14:41:26;1.00;;;0.90;;
1328;SDS011;658;48.820;9.354;2022-12-29T14:45:30;2.50;;;1.07;;
1328;SDS011;658;48.820;9.354;2022-12-29T14:49:41;0.90;;;0.90;;
1328;SDS011;658;48.820;9.354;2022-12-29T14:53:49;1.47;;;1.10;;
1328;SDS011;658;48.820;9.354;2022-12-29T14:57:51;0.90;;;0.90;;
1328;SDS011;658;48.820;9.354;2022-12-29T15:01:57;1.47;;;0.80;;
1328;SDS011;658;48.820;9.354;2022-12-29T15:06:04;1.70;;;0.97;;
1328;SDS011;658;48.820;9.354;2022-12-29T15:10:08;1.70;;;1.27;;
1328;SDS011;658;48.820;9.354;2022-12-29T15:14:28;0.80;;;0.80;;
1328;SDS011;658;48.820;9.354;2022-12-29T15:18:30;1.83;;;0.90;;
1328;SDS011;658;48.820;9.354;2022-12-29T15:22:33;0.87;;;0.87;;
1328;SDS011;658;48.820;9.354;2022-12-29T15:26:47;0.83;;;0.83;;
1328;SDS011;658;48.820;9.354;2022-12-29T15:30:52;1.30;;;1.07;;
1328;SDS011;658;48.820;9.354;2022-12-29T15:35:01;1.30;;;0.77;;
1328;SDS011;658;48.820;9.354;2022-12-29T15:39:28;0.90;;;0.90;;
1328;SDS011;658;48.820;9.354;2022-12-29T15:43:39;0.80;;;0.80;;
1328;SDS011;658;48.820;9.354;2022-12-29T15:48:00;0.90;;;0.90;;
1328;SDS011;658;48.820;9.354;2022-12-29T15:52:05;1.23;;;0.80;;
1328;SDS011;658;48.820;9.354;2022-12-29T15:56:09;1.00;;;0.80;;
1328;SDS011;658;48.820;9.354;2022-12-29T16:00:21;0.90;;;0.90;;
1328;SDS011;658;48.820;9.354;2022-12-29T16:04:35;1.60;;;1.17;;
1328;SDS011;658;48.820;9.354;2022-12-29T16:08:37;1.07;;;1.07;;
1328;SDS011;658;48.820;9.354;2022-12-29T16:12:39;0.70;;;0.70;;
1328;SDS011;658;48.820;9.354;2022-12-29T16:16:40;1.40;;;0.80;;
1328;SDS011;658;48.820;9.354;2022-12-29T16:20:43;0.83;;;0.83;;
1328;SDS011;658;48.820;9.354;2022-12-29T16:24:43;0.83;;;0.83;;
1328;SDS011;658;48.820;9.354;2022-12-29T16:28:47;0.83;;;0.83;;
1328;SDS011;658;48.820;9.354;2022-12-29T16:32:51;1.10;;;1.00;;
1328;SDS011;658;48.820;9.354;2022-12-29T16:36:58;0.90;;;0.90;;
1328;SDS011;658;48.820;9.354;2022-12-29T16:41:01;0.80;;;0.80;;
1328;SDS011;658;48.820;9.354;2022-12-29T16:49:18;1.20;;;1.00;;
1328;SDS011;658;48.820;9.354;2022-12-29T16:53:26;1.10;;;1.00;;
1328;SDS011;658;48.820;9.354;2022-12-29T16:57:32;0.90;;;0.90;;
1328;SDS011;658;48.820;9.354;2022-12-29T17:01:39;0.87;;;0.87;;
1328;SDS011;658;48.820;9.354;2022-12-29T17:05:39;1.43;;;1.10;;
1328;SDS011;658;48.820;9.354;2022-12-29T17:09:40;0.87;;;0.87;;
1328;SDS011;658;48.820;9.354;2022-12-29T17:13:41;1.30;;;1.20;;
1328;SDS011;658;48.820;9.354;2022-12-29T17:17:42;0.97;;;0.97;;
1328;SDS011;658;48.820;9.354;2022-12-29T17:21:44;1.30;;;1.20;;
1328;SDS011;658;48.820;9.354;2022-12-29T17:25:45;1.80;;;1.57;;
1328;SDS011;658;48.820;9.354;2022-12-29T17:29:47;2.27;;;1.90;;
1328;SDS011;658;48.820;9.354;2022-12-29T17:33:47;2.60;;;2.33;;
1328;SDS011;658;48.820;9.354;2022-12-29T17:37:48;2.70;;;2.50;;
1328;SDS011;658;48.820;9.354;2022-12-29T17:41:50;3.27;;;2.97;;
1328;SDS011;658;48.820;9.354;2022-12-29T17:45:54;3.70;;;3.40;;
1328;SDS011;658;48.820;9.354;2022-12-29T17:49:56;4.87;;;4.47;;
1328;SDS011;658;48.820;9.354;2022-12-29T17:53:56;6.40;;;5.23;;
1328;SDS011;658;48.820;9.354;2022-12-29T17:57:57;6.17;;;5.57;;
1328;SDS011;658;48.820;9.354;2022-12-29T18:01:58;6.37;;;5.77;;
1328;SDS011;658;48.820;9.354;2022-12-29T18:05:59;6.47;;;5.87;;
1328;SDS011;658;48.820;9.354;2022-12-29T18:10:00;6.43;;;5.83;;
1328;SDS011;658;48.820;9.354;2022-12-29T18:14:01;5.63;;;5.07;;
1328;SDS011;658;48.820;9.354;2022-12-29T18:18:05;6.40;;;5.80;;
1328;SDS011;658;48.820;9.354;2022-12-29T18:22:13;6.10;;;5.50;;
1328;SDS011;658;48.820;9.354;2022-12-29T18:30:18;5.90;;;5.30;;
1328;SDS011;658;48.820;9.354;2022-12-29T18:34:19;6.63;;;5.93;;
1328;SDS011;658;48.820;9.354;2022-12-29T18:38:19;7.37;;;6.00;;
1328;SDS011;658;48.820;9.354;2022-12-29T18:42:20;6.43;;;5.30;;
1328;SDS011;658;48.820;9.354;2022-12-29T18:46:21;4.87;;;4.47;;
1328;SDS011;658;48.820;9.354;2022-12-29T18:50:22;6.47;;;4.93;;
1328;SDS011;658;48.820;9.354;2022-12-29T18:54:38;5.87;;;5.30;;
1328;SDS011;658;48.820;9.354;2022-12-29T18:58:50;6.27;;;5.23;;
1328;SDS011;658;48.820;9.354;2022-12-29T19:03:10;5.23;;;4.73;;
1328;SDS011;658;48.820;9.354;2022-12-29T19:07:12;4.90;;;4.37;;
1328;SDS011;658;48.820;9.354;2022-12-29T19:11:12;4.87;;;4.37;;
1328;SDS011;658;48.820;9.354;2022-12-29T19:19:24;4.50;;;4.10;;
1328;SDS011;658;48.820;9.354;2022-12-29T19:23:25;4.63;;;4.13;;
1328;SDS011;658;48.820;9.354;2022-12-29T19:27:26;4.83;;;4.30;;
1328;SDS011;658;48.820;9.354;2022-12-29T19:31:27;4.37;;;3.87;;
1328;SDS011;658;48.820;9.354;2022-12-29T19:35:28;5.30;;;3.90;;
1328;SDS011;658;48.820;9.354;2022-12-29T19:39:29;4.50;;;4.10;;
1328;SDS011;658;48.820;9.354;2022-12-29T19:43:29;3.90;;;3.50;;
1328;SDS011;658;48.820;9.354;2022-12-29T19:47:30;3.90;;;3.60;;
1328;SDS011;658;48.820;9.354;2022-12-29T19:51:31;3.93;;;3.30;;
1328;SDS011;658;48.820;9.354;2022-12-29T19:55:32;3.83;;;3.53;;
1328;SDS011;658;48.820;9.354;2022-12-29T19:59:33;3.30;;;3.00;;
1328;SDS011;658;48.820;9.354;2022-12-29T20:03:33;3.70;;;3.40;;
1328;SDS011;658;48.820;9.354;2022-12-29T20:07:34;4.47;;;4.07;;
1328;SDS011;658;48.820;9.354;2022-12-29T20:11:35;3.50;;;3.20;;
1328;SDS011;658;48.820;9.354;2022-12-29T20:15:36;3.20;;;2.90;;
1328;SDS011;658;48.820;9.354;2022-12-29T20:19:41;3.47;;;3.17;;
1328;SDS011;658;48.820;9.354;2022-12-29T20:23:44;2.90;;;2.70;;
1328;SDS011;658;48.820;9.354;2022-12-29T20:27:45;3.33;;;2.90;;
1328;SDS011;658;48.820;9.354;2022-12-29T20:31:45;3.30;;;2.83;;
1328;SDS011;658;48.820;9.354;2022-12-29T20:35:46;2.60;;;2.40;;
1328;SDS011;658;48.820;9.354;2022-12-29T20:39:48;3.20;;;2.90;;
1328;SDS011;658;48.820;9.354;2022-12-29T20:43:48;4.07;;;2.70;;
1328;SDS011;658;48.820;9.354;2022-12-29T20:47:50;4.17;;;2.90;;
1328;SDS011;658;48.820;9.354;2022-12-29T20:51:50;3.50;;;2.73;;
1328;SDS011;658;48.820;9.354;2022-12-29T20:55:52;2.50;;;2.27;;
1328;SDS011;658;48.820;9.354;2022-12-29T20:59:53;2.20;;;2.00;;
1328;SDS011;658;48.820;9.354;2022-12-29T21:03:54;3.27;;;2.50;;
1328;SDS011;658;48.820;9.354;2022-12-29T21:07:55;3.00;;;2.43;;
1328;SDS011;658;48.820;9.354;2022-12-29T21:11:58;2.50;;;2.30;;
1328;SDS011;658;48.820;9.354;2022-12-29T21:16:00;2.30;;;2.10;;
1328;SDS011;658;48.820;9.354;2022-12-29T21:20:05;2.73;;;1.87;;
1328;SDS011;658;48.820;9.354;2022-12-29T21:24:06;2.00;;;1.90;;
1328;SDS011;658;48.820;9.354;2022-12-29T21:28:08;3.67;;;2.20;;
1328;SDS011;658;48.820;9.354;2022-12-29T21:32:12;2.03;;;1.93;;
1328;SDS011;658;48.820;9.354;2022-12-29T21:36:13;2.43;;;1.80;;
1328;SDS011;658;48.820;9.354;2022-12-29T21:40:14;2.00;;;1.90;;
1328;SDS011;658;48.820;9.354;2022-12-29T21:44:14;2.47;;;2.07;;
1328;SDS011;658;48.820;9.354;2022-12-29T21:48:34;2.30;;;1.90;;
1328;SDS011;658;48.820;9.354;2022-12-29T21:52:34;2.00;;;1.80;;
1328;SDS011;658;48.820;9.354;2022-12-29T21:56:35;1.77;;;1.67;;
1328;SDS011;658;48.820;9.354;2022-12-29T22:00:36;1.63;;;1.50;;
1328;SDS011;658;48.820;9.354;2022-12-29T22:04:55;2.20;;;1.70;;
1328;SDS011;658;48.820;9.354;2022-12-29T22:09:14;1.90;;;1.80;;
1328;SDS011;658;48.820;9.354;2022-12-29T22:13:34;2.33;;;1.87;;
1328;SDS011;658;48.820;9.354;2022-12-29T22:17:36;2.00;;;1.80;;
1328;SDS011;658;48.820;9.354;2022-12-29T22:21:37;1.50;;;1.40;;
1328;SDS011;658;48.820;9.354;2022-12-29T22:25:38;2.10;;;1.63;;
1328;SDS011;658;48.820;9.354;2022-12-29T22:29:39;1.50;;;1.40;;
1328;SDS011;658;48.820;9.354;2022-12-29T22:33:43;1.50;;;1.40;;
1328;SDS011;658;48.820;9.354;2022-12-29T22:37:44;1.53;;;1.27;;
1328;SDS011;658;48.820;9.354;2022-12-29T22:41:45;1.93;;;1.20;;
1328;SDS011;658;48.820;9.354;2022-12-29T22:45:45;2.80;;;1.43;;
1328;SDS011;658;48.820;9.354;2022-12-29T22:49:46;1.37;;;1.27;;
1328;SDS011;658;48.820;9.354;2022-12-29T22:53:47;1.70;;;1.30;;
1328;SDS011;658;48.820;9.354;2022-12-29T22:57:48;1.03;;;1.00;;
1328;SDS011;658;48.820;9.354;2022-12-29T23:01:49;1.83;;;1.00;;
1328;SDS011;658;48.820;9.354;2022-12-29T23:06:00;1.30;;;1.20;;
1328;SDS011;658;48.820;9.354;2022-12-29T23:10:03;1.30;;;1.20;;
1328;SDS011;658;48.820;9.354;2022-12-29T23:14:04;1.10;;;1.10;;
1328;SDS011;658;48.820;9.354;2022-12-29T23:18:04;1.07;;;1.03;;
1328;SDS011;658;48.820;9.354;2022-12-29T23:22:05;2.23;;;1.60;;
1328;SDS011;658;48.820;9.354;2022-12-29T23:26:06;1.63;;;1.37;;
1328;SDS011;658;48.820;9.354;2022-12-29T23:30:07;1.17;;;1.07;;
1328;SDS011;658;48.820;9.354;2022-12-29T23:34:08;1.27;;;1.07;;
1328;SDS011;658;48.820;9.354;2022-12-29T23:38:10;2.30;;;1.30;;
1328;SDS011;658;48.820;9.354;2022-12-29T23:42:10;1.47;;;1.00;;
1328;SDS011;658;48.820;9.354;2022-12-29T23:46:12;1.17;;;1.07;;
1328;SDS011;658;48.820;9.354;2022-12-29T23:50:15;1.53;;;1.07;;
1328;SDS011;658;48.820;9.354;2022-12-29T23:54:15;1.30;;;1.00;;
1328;SDS011;658;48.820;9.354;2022-12-29T23:58:16;1.27;;;1.17;;
